Archival Weather

Republic

Farmingdale, New York (KFRG)

Report from: Monday, February 19, 2024 5:53 PM EST
Current time: Friday, June 14, 2024 7:13 AM EDT

Current weather – Weather history – Daily summaries
Weather forecast

Temperature2.8°C (37.0°F)
Wind chill0.7°C (33.3°F)
Dew point-12.8°C (9.0°F)
Winds 4 kts (2.1 m/s, 4.6 mph) Northwest (320°)
Visibility10 mi. (16.1 km)
Clouds Sky clear
Altimeter30.23 in.Hg (1024 mB)
Relative humidity31 %
Density altitude-1,787 ft. (-545 m)
Sea-level pressure102.4 kPa (1024 mB, 30.22 in.Hg)
Remarks Automated weather observing station without precipitation discriminator
Flight conditions Visual Meteorological Conditions
Raw dataKFRG 192253Z 32004KT 10SM CLR 03/M13 A3023 RMK AO1 SLP235 T00281128
An error has occurred. This application may no longer respond until reloaded. Reload 🗙